createdAt,value
2022-09-22T00:01:35.693Z,99858.53
2022-09-22T00:04:07.329Z,99863.94
2022-09-22T00:06:39.477Z,99864.16
2022-09-22T00:09:10.397Z,99874.97
2022-09-22T00:11:42.555Z,99874.38
2022-09-22T00:14:12.876Z,99878.72
2022-09-22T00:16:45.005Z,99884.97
2022-09-22T00:19:16.391Z,99878.72
2022-09-22T00:21:47.343Z,99879.16
2022-09-22T00:24:16.683Z,99874.78
2022-09-22T00:26:45.470Z,99875.22
2022-09-22T00:29:13.951Z,99886.22
2022-09-22T00:31:43.411Z,99883.75
2022-09-22T00:34:16.469Z,99871.88
2022-09-22T00:36:46.469Z,99880.41
2022-09-22T00:39:15.905Z,99881.88
2022-09-22T00:41:46.055Z,99877.91
2022-09-22T00:44:34.191Z,99873.31
2022-09-22T00:47:07.680Z,99867.50
2022-09-22T00:49:43.317Z,99867.28
2022-09-22T00:52:17.466Z,99868.34
2022-09-22T00:54:46.153Z,99868.13
2022-09-22T00:57:20.533Z,99863.31
2022-09-22T00:59:51.558Z,99868.75
2022-09-22T01:02:21.269Z,99864.38
2022-09-22T01:04:52.148Z,99858.75
2022-09-22T01:07:24.115Z,99857.09
2022-09-22T01:09:52.978Z,99865.44
2022-09-22T01:12:21.392Z,99863.56
2022-09-22T01:15:10.594Z,99868.75
2022-09-22T01:17:49.004Z,99864.38
2022-09-22T01:20:53.379Z,99866.03
2022-09-22T01:23:40.125Z,99865.22
2022-09-22T01:26:42.602Z,99865.63
2022-09-22T01:29:29.272Z,99868.13
2022-09-22T01:32:08.199Z,99867.28
2022-09-22T01:34:45.959Z,99867.28
2022-09-22T01:37:23.427Z,99864.81
2022-09-22T01:39:55.658Z,99867.50
2022-09-22T01:42:29.147Z,99859.38
2022-09-22T01:45:03.060Z,99855.44
2022-09-22T01:47:40.835Z,99852.31
2022-09-22T01:50:11.969Z,99855.03
2022-09-22T01:52:42.651Z,99854.38
2022-09-22T01:55:16.275Z,99848.78
2022-09-22T01:57:52.810Z,99854.38
2022-09-22T02:00:23.311Z,99861.47
2022-09-22T02:02:58.826Z,99860.44
2022-09-22T02:05:33.521Z,99865.22
2022-09-22T02:08:06.846Z,99861.47
2022-09-22T02:10:40.496Z,99865.84
2022-09-22T02:13:08.995Z,99866.88
2022-09-22T02:15:54.839Z,99870.44
2022-09-22T02:18:29.172Z,99873.75
2022-09-22T02:20:57.943Z,99872.09
2022-09-22T02:23:26.654Z,99875.63
2022-09-22T02:25:57.141Z,99875.22
2022-09-22T02:28:26.917Z,99876.69
2022-09-22T02:31:18.638Z,99866.28
2022-09-22T02:33:47.855Z,99869.81
2022-09-22T02:36:31.966Z,99868.16
2022-09-22T02:39:07.419Z,99869.81
2022-09-22T02:41:47.299Z,99862.50
2022-09-22T02:44:22.706Z,99860.63
2022-09-22T02:46:57.309Z,99862.31
2022-09-22T02:49:29.376Z,99860.03
2022-09-22T02:51:57.905Z,99850.03
2022-09-22T02:54:26.251Z,99866.03
2022-09-22T02:56:55.134Z,99872.94
2022-09-22T02:59:23.484Z,99870.22
2022-09-22T03:01:51.875Z,99863.97
2022-09-22T03:04:20.271Z,99868.16
2022-09-22T03:06:49.974Z,99876.25
2022-09-22T03:09:18.331Z,99879.38
2022-09-22T03:11:47.049Z,99879.38
2022-09-22T03:14:15.427Z,99882.09
2022-09-22T03:16:43.954Z,99892.28
2022-09-22T03:19:12.495Z,99890.84
2022-09-22T03:21:40.878Z,99892.09
2022-09-22T03:24:12.746Z,99895.44
2022-09-22T03:26:41.086Z,99897.50
2022-09-22T03:29:09.463Z,99897.09
2022-09-22T03:31:37.859Z,99898.75
2022-09-22T03:34:06.249Z,99897.28
2022-09-22T03:36:35.320Z,99903.97
2022-09-22T03:39:05.134Z,99896.47
2022-09-22T03:41:35.168Z,99901.69
2022-09-22T03:44:04.558Z,99904.16
2022-09-22T03:46:32.949Z,99901.47
2022-09-22T03:49:03.320Z,99897.91
2022-09-22T03:51:31.812Z,99900.22
2022-09-22T03:54:00.313Z,99900.81
2022-09-22T03:56:28.841Z,99894.56
2022-09-22T03:58:58.625Z,99902.50
2022-09-22T04:01:26.977Z,99897.91
2022-09-22T04:03:55.447Z,99902.28
2022-09-22T04:06:24.182Z,99896.03
2022-09-22T04:08:52.520Z,99890.22
2022-09-22T04:11:20.971Z,99893.13
2022-09-22T04:13:49.386Z,99896.47
2022-09-22T04:16:19.411Z,99894.38
2022-09-22T04:18:47.883Z,99890.81
2022-09-22T04:21:16.251Z,99893.53
2022-09-22T04:23:44.591Z,99892.50
2022-09-22T04:26:12.985Z,99890.22
2022-09-22T04:28:41.429Z,99893.75
2022-09-22T04:31:09.839Z,99890.81
2022-09-22T04:33:39.697Z,99889.56
2022-09-22T04:36:08.420Z,99889.56
2022-09-22T04:38:36.823Z,99898.53
2022-09-22T04:41:05.472Z,99888.34
2022-09-22T04:43:33.960Z,99897.06
2022-09-22T04:46:02.402Z,99896.88
2022-09-22T04:48:30.825Z,99898.53
2022-09-22T04:51:00.830Z,99899.34
2022-09-22T04:53:29.145Z,99893.09
2022-09-22T04:55:57.510Z,99899.34
2022-09-22T04:58:25.951Z,99896.88
2022-09-22T05:00:54.974Z,99904.75
2022-09-22T05:03:23.411Z,99902.91
2022-09-22T05:05:51.750Z,99904.97
2022-09-22T05:08:21.549Z,99903.53
2022-09-22T05:10:49.967Z,99902.69
2022-09-22T05:13:18.420Z,99896.63
2022-09-22T05:15:46.777Z,99903.75
2022-09-22T05:18:15.167Z,99902.69
2022-09-22T05:20:44.785Z,99897.09
2022-09-22T05:23:13.273Z,99905.81
2022-09-22T05:25:44.250Z,99903.53
2022-09-22T05:28:12.690Z,99902.28
2022-09-22T05:30:41.322Z,99906.44
2022-09-22T05:33:09.707Z,99897.06
2022-09-22T05:35:38.066Z,99898.31
2022-09-22T05:38:06.409Z,99888.09
2022-09-22T05:40:35.052Z,99879.78
2022-09-22T05:43:04.970Z,99882.09
2022-09-22T05:45:33.515Z,99885.38
2022-09-22T05:48:02.310Z,99888.50
2022-09-22T05:50:30.728Z,99893.50
2022-09-22T05:53:06.740Z,99891.84
2022-09-22T05:55:35.675Z,99903.50
2022-09-22T05:58:05.589Z,99896.44
2022-09-22T06:00:34.276Z,99900.38
2022-09-22T06:03:02.772Z,99886.84
2022-09-22T06:05:31.267Z,99886.44
2022-09-22T06:08:03.522Z,99886.22
2022-09-22T06:10:33.554Z,99901.84
2022-09-22T06:13:02.972Z,99901.00
2022-09-22T06:15:34.211Z,99896.44
2022-09-22T06:18:04.265Z,99890.78
2022-09-22T06:20:32.638Z,99891.63
2022-09-22T06:23:01.127Z,99893.28
2022-09-22T06:25:29.761Z,99895.16
2022-09-22T06:28:05.004Z,99897.88
2022-09-22T06:30:35.274Z,99889.97
2022-09-22T06:33:04.077Z,99899.72
2022-09-22T06:35:37.807Z,99897.66
2022-09-22T06:38:07.519Z,99891.59
2022-09-22T06:40:37.510Z,99892.44
2022-09-22T06:43:12.179Z,99890.94
2022-09-22T06:45:43.248Z,99895.94
2022-09-22T06:48:12.461Z,99895.72
2022-09-22T06:50:41.310Z,99897.41
2022-09-22T06:53:12.830Z,99894.91
2022-09-22T06:55:44.097Z,99894.47
2022-09-22T06:58:13.791Z,99898.63
2022-09-22T07:00:44.389Z,99901.94
2022-09-22T07:03:19.685Z,99904.66
2022-09-22T07:05:55.775Z,99901.53
2022-09-22T07:08:25.138Z,99894.28
2022-09-22T07:10:55.446Z,99897.16
2022-09-22T07:13:24.202Z,99895.28
2022-09-22T07:15:55.524Z,99886.09
2022-09-22T07:18:23.906Z,99888.19
2022-09-22T07:20:52.289Z,99900.69
2022-09-22T07:23:21.469Z,99898.38
2022-09-22T07:25:56.501Z,99906.28
2022-09-22T07:28:26.064Z,99900.06
2022-09-22T07:30:57.426Z,99908.63
2022-09-22T07:33:26.100Z,99907.34
2022-09-22T07:36:08.966Z,99906.53
2022-09-22T07:38:37.593Z,99909.63
2022-09-22T07:41:08.022Z,99908.97
2022-09-22T07:43:36.658Z,99909.44
2022-09-22T07:46:07.467Z,99912.97
2022-09-22T07:48:41.517Z,99922.97
2022-09-22T07:51:16.591Z,99924.41
2022-09-22T07:53:45.876Z,99923.19
2022-09-22T07:56:15.910Z,99917.09
2022-09-22T07:58:50.203Z,99925.88
2022-09-22T08:01:20.981Z,99928.56
2022-09-22T08:03:50.927Z,99925.22
2022-09-22T08:06:23.550Z,99930.03
2022-09-22T08:08:56.530Z,99930.44
2022-09-22T08:11:27.344Z,99925.63
2022-09-22T08:13:57.570Z,99928.34
2022-09-22T08:16:29.868Z,99929.38
2022-09-22T08:18:59.887Z,99918.94
2022-09-22T08:21:35.450Z,99924.34
2022-09-22T08:24:04.774Z,99925.19
2022-09-22T08:26:33.642Z,99916.22
2022-09-22T08:29:02.222Z,99913.50
2022-09-22T08:31:32.601Z,99916.41
2022-09-22T08:34:01.088Z,99914.09
2022-09-22T08:36:29.653Z,99914.34
2022-09-22T08:38:59.957Z,99915.56
2022-09-22T08:41:39.145Z,99916.63
2022-09-22T08:44:20.281Z,99923.28
2022-09-22T08:46:50.966Z,99930.81
2022-09-22T08:49:43.283Z,99934.56
2022-09-22T08:52:20.946Z,99934.38
2022-09-22T08:54:50.173Z,99929.78
2022-09-22T08:57:36.922Z,99938.09
2022-09-22T09:00:07.920Z,99939.16
2022-09-22T09:02:43.112Z,99938.34
2022-09-22T09:05:40.983Z,99940.00
2022-09-22T09:08:30.478Z,99946.50
2022-09-22T09:11:09.068Z,99933.59
2022-09-22T09:13:49.547Z,99944.03
2022-09-22T09:16:42.101Z,99945.69
2022-09-22T09:19:18.012Z,99939.03
2022-09-22T09:21:51.957Z,99944.44
2022-09-22T09:27:22.373Z,99943.78
2022-09-22T09:30:01.599Z,99941.94
2022-09-22T09:32:43.490Z,99937.56
2022-09-22T09:35:16.142Z,99931.50
2022-09-22T09:37:46.914Z,99928.34
2022-09-22T09:40:18.418Z,99928.13
2022-09-22T09:42:53.324Z,99928.91
2022-09-22T09:45:32.019Z,99928.72
